createdAt,value
2023-04-30T00:00:29.899Z,101344.41
2023-04-30T00:02:57.130Z,101339.16
2023-04-30T00:05:25.960Z,101339.09
2023-04-30T00:07:53.269Z,101341.72
2023-04-30T00:10:20.373Z,101340.81
2023-04-30T00:12:47.430Z,101348.75
2023-04-30T00:15:14.478Z,101340.84
2023-04-30T00:17:41.694Z,101330.22
2023-04-30T00:20:12.487Z,101316.19
2023-04-30T00:22:39.597Z,101317.09
2023-04-30T00:25:06.919Z,101311.78
2023-04-30T00:27:34.065Z,101315.28
2023-04-30T00:30:01.142Z,101310.06
2023-04-30T00:32:28.455Z,101305.66
2023-04-30T00:34:55.654Z,101297.81
2023-04-30T00:37:23.129Z,101297.78
2023-04-30T00:39:53.412Z,101292.47
2023-04-30T00:42:20.705Z,101290.63
2023-04-30T00:44:47.827Z,101302.03
2023-04-30T00:47:18.727Z,101296.75
2023-04-30T00:49:49.383Z,101296.72
2023-04-30T00:52:16.799Z,101302.88
2023-04-30T00:54:44.059Z,101300.25
2023-04-30T00:57:14.289Z,101283.56
2023-04-30T00:59:42.432Z,101282.69
2023-04-30T01:02:13.452Z,101280.00
2023-04-30T01:04:41.138Z,101286.09
2023-04-30T01:07:11.149Z,101271.19
2023-04-30T01:09:40.993Z,101267.66
2023-04-30T01:12:39.058Z,101258.03
2023-04-30T01:15:15.534Z,101253.63
2023-04-30T01:17:58.066Z,101264.22
2023-04-30T01:20:29.785Z,101252.75
2023-04-30T01:23:21.584Z,101253.66
2023-04-30T01:26:20.125Z,101253.66
2023-04-30T01:28:52.425Z,101249.34
2023-04-30T01:31:20.047Z,101236.97
2023-04-30T01:33:47.292Z,101231.72
2023-04-30T01:36:42.196Z,101226.47
2023-04-30T01:39:18.984Z,101221.25
2023-04-30T01:42:02.433Z,101218.56
2023-04-30T01:44:49.350Z,101222.09
2023-04-30T01:47:52.419Z,101221.31
2023-04-30T01:50:50.149Z,101218.66
2023-04-30T01:53:24.428Z,101219.56
2023-04-30T01:56:04.978Z,101225.88
2023-04-30T01:58:36.151Z,101220.59
2023-04-30T02:01:06.896Z,101217.94
2023-04-30T02:03:34.202Z,101219.69
2023-04-30T02:06:01.405Z,101213.63
2023-04-30T02:08:32.095Z,101209.16
2023-04-30T02:11:02.943Z,101211.78
2023-04-30T02:13:33.601Z,101209.16
2023-04-30T02:16:07.165Z,101210.06
2023-04-30T02:18:34.432Z,101205.66
2023-04-30T02:21:04.450Z,101210.91
2023-04-30T02:23:34.278Z,101205.72
2023-04-30T02:26:03.966Z,101204.81
2023-04-30T02:28:34.062Z,101209.19
2023-04-30T02:31:03.449Z,101213.59
2023-04-30T02:33:33.201Z,101223.31
2023-04-30T02:36:01.783Z,101223.31
2023-04-30T02:38:34.369Z,101235.59
2023-04-30T02:41:03.428Z,101236.47
2023-04-30T02:43:30.944Z,101244.41
2023-04-30T02:45:58.309Z,101236.53
2023-04-30T02:48:25.558Z,101242.66
2023-04-30T02:50:53.588Z,101233.00
2023-04-30T02:53:23.951Z,101237.34
2023-04-30T02:55:53.620Z,101232.97
2023-04-30T02:58:21.134Z,101229.44
2023-04-30T03:00:48.328Z,101232.09
2023-04-30T03:03:15.986Z,101230.38
2023-04-30T03:05:44.167Z,101225.94
2023-04-30T03:08:11.179Z,101229.47
2023-04-30T03:10:38.175Z,101226.84
2023-04-30T03:13:05.235Z,101238.25
2023-04-30T03:15:34.708Z,101231.25
2023-04-30T03:18:01.865Z,101231.19
2023-04-30T03:20:29.000Z,101241.75
2023-04-30T03:22:56.124Z,101232.09
2023-04-30T03:25:23.372Z,101230.31
2023-04-30T03:27:50.366Z,101237.31
2023-04-30T03:30:17.676Z,101239.94
2023-04-30T03:32:45.208Z,101235.56
2023-04-30T03:35:12.308Z,101236.38
2023-04-30T03:37:39.324Z,101234.63
2023-04-30T03:40:07.258Z,101239.88
2023-04-30T03:42:34.395Z,101243.38
2023-04-30T03:45:01.746Z,101242.56
2023-04-30T03:47:28.837Z,101232.03
2023-04-30T03:49:56.421Z,101226.78
2023-04-30T03:52:24.498Z,101228.56
2023-04-30T03:54:51.508Z,101227.66
2023-04-30T03:57:20.157Z,101230.28
2023-04-30T04:02:56.366Z,101234.75
2023-04-30T04:05:28.113Z,101232.09
2023-04-30T04:07:59.096Z,101230.38
2023-04-30T04:10:29.863Z,101235.63
2023-04-30T04:12:57.610Z,101236.50
2023-04-30T04:15:25.003Z,101246.25
2023-04-30T04:17:52.364Z,101245.34
2023-04-30T04:20:19.678Z,101240.94
2023-04-30T04:22:49.907Z,101235.63
2023-04-30T04:25:20.176Z,101240.88
2023-04-30T04:27:47.608Z,101241.78
2023-04-30T04:30:17.633Z,101234.72
2023-04-30T04:32:49.510Z,101240.88
2023-04-30T04:35:19.115Z,101247.88
2023-04-30T04:37:46.170Z,101242.63
2023-04-30T04:40:16.772Z,101247.88
2023-04-30T04:42:46.781Z,101248.72
2023-04-30T04:45:16.014Z,101239.91
2023-04-30T04:47:43.509Z,101236.41
2023-04-30T04:50:11.324Z,101239.03
2023-04-30T04:52:39.282Z,101248.66
2023-04-30T04:55:07.465Z,101243.41
2023-04-30T04:57:34.697Z,101246.94
2023-04-30T05:00:02.169Z,101246.94
2023-04-30T05:02:30.257Z,101251.34
2023-04-30T05:05:02.933Z,101254.84
2023-04-30T05:07:36.288Z,101257.47
2023-04-30T05:10:04.303Z,101252.22
2023-04-30T05:12:34.700Z,101258.38
2023-04-30T05:15:01.872Z,101262.72
2023-04-30T05:17:29.396Z,101267.13
2023-04-30T05:19:56.936Z,101270.59
2023-04-30T05:22:24.621Z,101282.03
2023-04-30T05:24:53.374Z,101280.31
2023-04-30T05:27:23.320Z,101285.56
2023-04-30T05:29:50.544Z,101288.19
2023-04-30T05:32:17.651Z,101282.91
2023-04-30T05:34:46.602Z,101287.31
2023-04-30T05:37:20.838Z,101287.31
2023-04-30T05:39:48.424Z,101292.63
2023-04-30T05:42:19.240Z,101293.50
2023-04-30T05:44:48.491Z,101293.50
2023-04-30T05:47:15.663Z,101290.88
2023-04-30T05:49:45.798Z,101290.84
2023-04-30T05:52:14.430Z,101292.59
2023-04-30T05:54:41.570Z,101297.84
2023-04-30T05:57:08.765Z,101297.84
2023-04-30T05:59:35.901Z,101299.53
2023-04-30T06:02:03.245Z,101298.66
2023-04-30T06:04:36.921Z,101298.63
2023-04-30T06:07:04.214Z,101298.66
2023-04-30T06:09:31.594Z,101296.91
2023-04-30T06:11:58.824Z,101304.81
2023-04-30T06:14:26.984Z,101303.88
2023-04-30T06:16:56.681Z,101304.75
2023-04-30T06:19:23.863Z,101314.44
2023-04-30T06:21:50.965Z,101308.25
2023-04-30T06:24:20.323Z,101327.56
2023-04-30T06:26:47.772Z,101328.44
2023-04-30T06:29:15.028Z,101324.00
2023-04-30T06:31:42.269Z,101329.31
2023-04-30T06:34:09.422Z,101326.69
2023-04-30T06:36:38.884Z,101328.44
2023-04-30T06:39:06.813Z,101325.75
2023-04-30T06:41:34.253Z,101327.53
2023-04-30T06:44:07.433Z,101329.31
2023-04-30T06:46:35.096Z,101335.50
2023-04-30T06:49:02.562Z,101338.16
2023-04-30T06:51:32.903Z,101341.66
2023-04-30T06:54:02.488Z,101348.69
2023-04-30T06:56:33.081Z,101349.53
2023-04-30T06:59:00.416Z,101351.34
2023-04-30T07:01:36.616Z,101365.41
2023-04-30T07:04:04.633Z,101377.75
2023-04-30T07:06:32.026Z,101381.28
2023-04-30T07:08:59.280Z,101374.19
2023-04-30T07:11:26.856Z,101378.56
2023-04-30T07:13:57.434Z,101378.53
2023-04-30T07:16:29.618Z,101383.00
2023-04-30T07:18:56.934Z,101382.97
2023-04-30T07:21:29.627Z,101383.88
2023-04-30T07:24:05.631Z,101376.72
2023-04-30T07:26:37.463Z,101371.56
2023-04-30T07:29:10.000Z,101370.56
2023-04-30T07:31:40.125Z,101365.25
2023-04-30T07:34:10.498Z,101370.53
2023-04-30T07:36:45.012Z,101371.34
2023-04-30T07:39:15.469Z,101373.97
2023-04-30T07:41:54.106Z,101383.63
2023-04-30T07:44:21.957Z,101393.31
2023-04-30T07:46:50.073Z,101390.63
2023-04-30T07:49:22.166Z,101389.81
2023-04-30T07:51:58.190Z,101393.25
2023-04-30T07:54:31.501Z,101391.56
2023-04-30T07:57:04.082Z,101395.91
2023-04-30T07:59:44.305Z,101396.88
2023-04-30T08:02:13.956Z,101398.44
2023-04-30T08:04:47.329Z,101401.00
2023-04-30T08:07:17.039Z,101398.25
2023-04-30T08:09:47.320Z,101399.81
2023-04-30T08:12:22.347Z,101399.75
2023-04-30T08:15:04.212Z,101409.34
2023-04-30T08:17:39.156Z,101410.78
2023-04-30T08:20:10.155Z,101408.66
2023-04-30T08:22:39.779Z,101410.25
2023-04-30T08:25:07.624Z,101409.91
2023-04-30T08:27:44.711Z,101415.03
2023-04-30T08:30:18.069Z,101408.50
2023-04-30T08:32:49.699Z,101418.91
2023-04-30T08:35:19.233Z,101412.59
2023-04-30T08:37:46.794Z,101422.00
2023-04-30T08:40:51.557Z,101427.34
2023-04-30T08:43:20.672Z,101420.63
2023-04-30T08:48:45.121Z,101427.31
2023-04-30T08:51:13.351Z,101431.59
2023-04-30T08:53:51.017Z,101421.00
2023-04-30T08:56:31.509Z,101421.19
2023-04-30T08:59:09.217Z,101422.50
2023-04-30T09:01:38.281Z,101432.00
2023-04-30T09:04:09.790Z,101431.72
2023-04-30T09:06:45.072Z,101438.47
2023-04-30T09:09:23.543Z,101439.22
2023-04-30T09:12:19.332Z,101441.22
2023-04-30T09:15:05.492Z,101435.81
2023-04-30T09:17:38.167Z,101438.31
2023-04-30T09:20:09.658Z,101449.16
2023-04-30T09:22:43.616Z,101433.94
2023-04-30T09:25:18.445Z,101433.53
2023-04-30T09:28:24.385Z,101435.16
2023-04-30T09:31:21.882Z,101430.78
2023-04-30T09:34:01.382Z,101428.06
2023-04-30T09:36:32.004Z,101428.22
2023-04-30T09:39:14.250Z,101433.53
2023-04-30T09:41:50.299Z,101426.38
2023-04-30T09:44:30.830Z,101420.44
2023-04-30T09:47:03.738Z,101427.78
2023-04-30T09:49:41.464Z,101431.91
2023-04-30T09:52:18.206Z,101429.06
2023-04-30T09:54:51.308Z,101429.16
2023-04-30T09:57:23.301Z,101424.97
2023-04-30T09:59:57.054Z,101428.50
2023-04-30T10:02:27.777Z,101427.44
2023-04-30T10:05:01.645Z,101422.81
2023-04-30T10:07:48.226Z,101424.75
2023-04-30T10:10:23.382Z,101423.91
2023-04-30T10:12:55.113Z,101421.00
2023-04-30T10:15:57.585Z,101414.50
2023-04-30T10:18:53.705Z,101416.06
2023-04-30T10:21:35.642Z,101412.03
2023-04-30T10:24:06.352Z,101413.66
2023-04-30T10:26:54.487Z,101410.03
2023-04-30T10:29:31.899Z,101404.84
2023-04-30T10:32:02.195Z,101406.97
2023-04-30T10:35:04.982Z,101403.94
2023-04-30T10:38:15.549Z,101401.69
2023-04-30T10:40:48.213Z,101405.84
2023-04-30T10:43:19.081Z,101399.81
2023-04-30T10:45:46.456Z,101397.06
2023-04-30T10:48:25.336Z,101407.19
2023-04-30T10:50:56.394Z,101399.28
2023-04-30T10:53:28.204Z,101395.78
2023-04-30T10:56:03.022Z,101399.91
2023-04-30T10:58:36.410Z,101398.31
2023-04-30T11:01:08.791Z,101400.19
2023-04-30T11:03:38.573Z,101397.78
2023-04-30T11:06:22.227Z,101400.28
2023-04-30T11:08:53.394Z,101390.31
2023-04-30T11:11:24.085Z,101386.69
2023-04-30T11:14:01.936Z,101391.28
2023-04-30T11:16:42.796Z,101393.53
2023-04-30T11:19:15.349Z,101397.88
2023-04-30T11:22:03.817Z,101391.28
2023-04-30T11:24:52.968Z,101395.22
2023-04-30T11:27:30.235Z,101389.50
2023-04-30T11:30:10.364Z,101388.66
2023-04-30T11:32:39.424Z,101385.72
2023-04-30T11:35:09.677Z,101377.25
2023-04-30T11:37:39.392Z,101380.59
2023-04-30T11:40:14.255Z,101382.09
2023-04-30T11:42:51.634Z,101379.81
2023-04-30T11:45:25.815Z,101388.63
2023-04-30T11:47:58.093Z,101373.47
2023-04-30T11:50:42.845Z,101363.81
2023-04-30T11:53:28.964Z,101363.13
2023-04-30T11:55:59.119Z,101369.22
2023-04-30T11:58:33.505Z,101366.81
2023-04-30T12:01:04.956Z,101378.56
2023-04-30T12:03:46.528Z,101376.22
2023-04-30T12:06:26.646Z,101366.22
2023-04-30T12:08:58.089Z,101360.56
2023-04-30T12:11:27.412Z,101351.31
2023-04-30T12:14:07.892Z,101356.47
2023-04-30T12:16:52.321Z,101349.97
2023-04-30T12:19:22.475Z,101355.63
2023-04-30T12:21:50.337Z,101353.69
2023-04-30T12:24:20.193Z,101350.84
2023-04-30T12:26:48.256Z,101336.47
2023-04-30T12:29:17.851Z,101336.47
2023-04-30T12:31:52.675Z,101335.00
2023-04-30T12:34:20.147Z,101332.66
2023-04-30T12:36:47.551Z,101344.53
2023-04-30T12:39:18.572Z,101337.41
2023-04-30T12:41:50.018Z,101344.72
2023-04-30T12:44:25.720Z,101348.88
2023-04-30T12:46:57.408Z,101336.75
2023-04-30T12:49:28.725Z,101342.53
2023-04-30T12:52:14.248Z,101347.84
2023-04-30T12:54:42.108Z,101350.50
2023-04-30T12:57:13.198Z,101356.72
2023-04-30T12:59:58.514Z,101342.84
2023-04-30T13:02:36.070Z,101338.41
2023-04-30T13:05:04.130Z,101322.28
2023-04-30T13:07:43.953Z,101322.84
2023-04-30T13:10:14.307Z,101328.38
2023-04-30T13:12:43.906Z,101330.94
2023-04-30T13:15:11.368Z,101338.78
2023-04-30T13:17:42.617Z,101327.72
2023-04-30T13:20:10.585Z,101327.66
2023-04-30T13:22:38.013Z,101312.28
2023-04-30T13:25:05.803Z,101330.81
2023-04-30T13:27:32.884Z,101318.09
2023-04-30T13:30:01.389Z,101325.09
2023-04-30T13:32:28.796Z,101323.81
2023-04-30T13:34:56.890Z,101329.75
2023-04-30T13:37:24.601Z,101320.63
2023-04-30T13:39:51.730Z,101339.38
2023-04-30T13:42:19.121Z,101315.53
2023-04-30T13:44:47.931Z,101304.38
2023-04-30T13:47:15.372Z,101302.25
2023-04-30T13:49:42.541Z,101292.09
2023-04-30T13:52:10.349Z,101297.06
2023-04-30T13:54:41.171Z,101299.66
2023-04-30T13:57:08.383Z,101300.13
2023-04-30T13:59:36.233Z,101297.78
2023-04-30T14:02:03.555Z,101310.63
2023-04-30T14:04:33.421Z,101302.75
2023-04-30T14:07:02.179Z,101308.38
2023-04-30T14:09:31.567Z,101306.19
2023-04-30T14:11:59.290Z,101298.00
2023-04-30T14:14:27.138Z,101311.16
2023-04-30T14:16:54.768Z,101303.03
2023-04-30T14:19:25.510Z,101315.28
2023-04-30T14:21:52.700Z,101313.06
2023-04-30T14:24:20.476Z,101301.44
2023-04-30T14:26:47.833Z,101292.25
2023-04-30T14:29:19.331Z,101284.16
2023-04-30T14:31:51.312Z,101277.81
2023-04-30T14:34:21.357Z,101275.03
2023-04-30T14:36:48.508Z,101280.13
2023-04-30T14:39:15.862Z,101298.50
2023-04-30T14:41:43.080Z,101301.31
2023-04-30T14:44:21.292Z,101298.47
2023-04-30T14:46:48.591Z,101287.72
2023-04-30T14:49:23.231Z,101293.34
2023-04-30T14:51:55.417Z,101280.59
2023-04-30T14:54:23.212Z,101278.59
2023-04-30T14:56:50.862Z,101291.38
2023-04-30T14:59:18.504Z,101312.06
2023-04-30T15:01:49.066Z,101342.00
2023-04-30T15:04:16.567Z,101336.56
2023-04-30T15:06:44.024Z,101324.25
2023-04-30T15:09:14.442Z,101339.97
2023-04-30T15:11:41.572Z,101335.38
2023-04-30T15:14:12.078Z,101330.03
2023-04-30T15:16:39.727Z,101328.72
2023-04-30T15:19:06.902Z,101335.59
2023-04-30T15:21:34.323Z,101340.75
2023-04-30T15:24:04.115Z,101344.28
2023-04-30T15:26:31.582Z,101352.53
2023-04-30T15:28:58.661Z,101340.69
2023-04-30T15:31:25.886Z,101341.16
2023-04-30T15:33:56.047Z,101349.09
2023-04-30T15:36:23.591Z,101374.19
2023-04-30T15:38:51.274Z,101382.09
2023-04-30T15:41:18.332Z,101391.66
2023-04-30T15:43:48.414Z,101384.72
2023-04-30T15:46:16.251Z,101387.53
2023-04-30T15:48:43.449Z,101395.41
2023-04-30T15:51:10.540Z,101407.06
2023-04-30T15:53:40.298Z,101410.63
2023-04-30T15:56:09.015Z,101429.28
2023-04-30T15:58:36.030Z,101431.28
2023-04-30T16:01:03.311Z,101411.13
2023-04-30T16:03:33.385Z,101386.56
2023-04-30T16:06:08.489Z,101332.19
2023-04-30T16:08:36.048Z,101300.66
2023-04-30T16:11:04.121Z,101290.16
2023-04-30T16:13:31.521Z,101324.38
2023-04-30T16:15:58.941Z,101334.03
2023-04-30T16:18:26.205Z,101348.94
2023-04-30T16:20:53.604Z,101364.66
2023-04-30T16:23:21.009Z,101346.28
2023-04-30T16:25:48.048Z,101356.69
2023-04-30T16:28:15.238Z,101355.88
2023-04-30T16:30:42.711Z,101351.47
2023-04-30T16:33:15.059Z,101341.88
2023-04-30T16:35:44.550Z,101334.00
2023-04-30T16:38:13.127Z,101324.38
2023-04-30T16:40:40.804Z,101325.25
2023-04-30T16:43:08.381Z,101342.78
2023-04-30T16:45:36.131Z,101366.53
2023-04-30T16:48:03.697Z,101382.25
2023-04-30T16:50:33.702Z,101384.06
2023-04-30T16:53:00.767Z,101389.31
2023-04-30T16:55:27.802Z,101397.25
2023-04-30T16:57:55.168Z,101396.34
2023-04-30T17:00:22.353Z,101398.13
2023-04-30T17:02:50.416Z,101401.59
2023-04-30T17:05:17.536Z,101405.13
2023-04-30T17:07:45.102Z,101413.91
2023-04-30T17:10:13.389Z,101409.53
2023-04-30T17:12:40.621Z,101407.75
2023-04-30T17:15:08.172Z,101407.75
2023-04-30T17:17:35.361Z,101410.41
2023-04-30T17:20:02.563Z,101415.63
2023-04-30T17:22:33.149Z,101418.25
2023-04-30T17:25:02.328Z,101413.91
2023-04-30T17:27:31.293Z,101416.50
2023-04-30T17:29:58.678Z,101426.16
2023-04-30T17:32:27.289Z,101421.72
2023-04-30T17:34:54.684Z,101422.66
2023-04-30T17:37:21.809Z,101420.03
2023-04-30T17:39:49.019Z,101424.44
2023-04-30T17:42:16.612Z,101415.66
2023-04-30T17:44:45.272Z,101425.31
2023-04-30T17:47:15.500Z,101431.47
2023-04-30T17:49:43.338Z,101440.22
2023-04-30T17:52:13.792Z,101436.75
2023-04-30T17:54:45.148Z,101441.97
2023-04-30T17:57:12.274Z,101446.38
2023-04-30T17:59:40.256Z,101456.91
2023-04-30T18:02:10.213Z,101461.25
2023-04-30T18:04:43.364Z,101448.13
2023-04-30T18:07:11.107Z,101447.25
2023-04-30T18:09:38.167Z,101451.63
2023-04-30T18:12:05.969Z,101446.38
2023-04-30T18:14:32.971Z,101453.41
2023-04-30T18:17:00.116Z,101444.59
2023-04-30T18:19:30.131Z,101447.25
2023-04-30T18:21:57.543Z,101434.97
2023-04-30T18:24:27.940Z,101438.47
2023-04-30T18:26:58.531Z,101435.84
2023-04-30T18:29:26.632Z,101440.25
2023-04-30T18:31:53.686Z,101451.66
2023-04-30T18:34:20.742Z,101451.66
2023-04-30T18:36:47.848Z,101463.94
2023-04-30T18:39:15.117Z,101476.22
2023-04-30T18:41:42.265Z,101487.66
2023-04-30T18:44:11.915Z,101485.91
2023-04-30T18:46:39.095Z,101481.47
2023-04-30T18:49:06.751Z,101481.50
2023-04-30T18:51:41.231Z,101487.63
2023-04-30T18:54:13.837Z,101499.91
2023-04-30T18:56:41.270Z,101501.69
2023-04-30T18:59:08.562Z,101510.47
2023-04-30T19:01:40.985Z,101506.94
2023-04-30T19:04:13.912Z,101525.41
2023-04-30T19:06:45.558Z,101525.38
2023-04-30T19:09:15.841Z,101523.59
2023-04-30T19:11:48.752Z,101530.63
2023-04-30T19:14:20.720Z,101526.25
2023-04-30T19:16:53.490Z,101530.66
2023-04-30T19:19:26.863Z,101535.03
2023-04-30T19:21:59.498Z,101546.47
2023-04-30T19:24:27.093Z,101550.00
2023-04-30T19:26:54.678Z,101555.25
2023-04-30T19:29:24.847Z,101559.63
2023-04-30T19:31:54.680Z,101564.91
2023-04-30T19:34:23.353Z,101568.41
2023-04-30T19:39:46.765Z,101569.22
2023-04-30T19:42:38.914Z,101581.56
2023-04-30T19:45:10.553Z,101585.09
2023-04-30T19:47:41.567Z,101591.22
2023-04-30T19:50:18.663Z,101584.19
2023-04-30T19:53:16.575Z,101584.19
2023-04-30T19:55:53.993Z,101598.25
2023-04-30T19:58:25.793Z,101586.84
2023-04-30T20:01:19.896Z,101588.59
2023-04-30T20:03:56.495Z,101589.44
2023-04-30T20:06:28.615Z,101585.06
2023-04-30T20:09:02.217Z,101591.16
2023-04-30T20:11:31.406Z,101597.38
2023-04-30T20:14:02.530Z,101606.13
2023-04-30T20:16:32.365Z,101611.41
2023-04-30T20:19:03.508Z,101603.50
2023-04-30T20:21:32.467Z,101600.88
2023-04-30T20:24:00.552Z,101602.56
2023-04-30T20:26:27.907Z,101607.91
2023-04-30T20:29:03.334Z,101601.75
2023-04-30T20:31:33.167Z,101604.38
2023-04-30T20:34:04.239Z,101609.66
2023-04-30T20:36:42.460Z,101612.28
2023-04-30T20:39:11.457Z,101613.13
2023-04-30T20:41:39.614Z,101611.34
2023-04-30T20:44:09.995Z,101624.50
2023-04-30T20:46:38.510Z,101615.78
2023-04-30T20:49:07.233Z,101609.63
2023-04-30T20:51:34.651Z,101608.75
2023-04-30T20:54:04.435Z,101607.00
2023-04-30T20:56:36.628Z,101613.97
2023-04-30T20:59:05.424Z,101604.38
2023-04-30T21:01:34.829Z,101614.84
2023-04-30T21:04:04.060Z,101607.91
2023-04-30T21:06:34.092Z,101616.66
2023-04-30T21:09:06.709Z,101604.38
2023-04-30T21:11:35.357Z,101607.03
2023-04-30T21:16:52.022Z,101608.78
2023-04-30T21:19:21.211Z,101607.03
2023-04-30T21:21:52.688Z,101608.75
2023-04-30T21:24:22.279Z,101608.72
2023-04-30T21:26:55.524Z,101603.44
2023-04-30T21:29:27.856Z,101606.13
2023-04-30T21:31:56.717Z,101605.28
2023-04-30T21:34:29.602Z,101606.16
2023-04-30T21:36:57.998Z,101601.75
2023-04-30T21:39:25.452Z,101604.41
2023-04-30T21:41:54.192Z,101606.16
2023-04-30T21:44:22.399Z,101608.78
2023-04-30T21:46:53.023Z,101606.16
2023-04-30T21:49:23.017Z,101607.88
2023-04-30T21:51:51.426Z,101609.66
2023-04-30T21:54:22.348Z,101604.38
2023-04-30T21:56:56.119Z,101598.19
2023-04-30T21:59:25.546Z,101594.63
2023-04-30T22:01:54.118Z,101587.63
2023-04-30T22:04:25.835Z,101592.03
2023-04-30T22:06:54.474Z,101596.44
2023-04-30T22:09:23.854Z,101608.69
2023-04-30T22:11:52.648Z,101597.31
2023-04-30T22:14:20.831Z,101597.28
2023-04-30T22:16:49.957Z,101599.84
2023-04-30T22:19:21.078Z,101591.16
2023-04-30T22:21:49.350Z,101594.63
2023-04-30T22:24:16.779Z,101591.16
2023-04-30T22:26:44.485Z,101596.38
2023-04-30T22:29:11.664Z,101583.25
2023-04-30T22:31:40.630Z,101585.91
2023-04-30T22:34:11.584Z,101579.72
2023-04-30T22:36:45.265Z,101581.50
2023-04-30T22:39:13.940Z,101584.16
2023-04-30T22:41:47.377Z,101582.38
2023-04-30T22:44:15.319Z,101582.34
2023-04-30T22:46:46.167Z,101582.38
2023-04-30T22:49:23.818Z,101583.25
2023-04-30T22:51:57.821Z,101575.34
2023-04-30T22:54:25.573Z,101570.97
2023-04-30T22:56:59.130Z,101574.53
2023-04-30T23:02:07.509Z,101569.25
2023-04-30T23:04:36.422Z,101568.34
2023-04-30T23:07:03.886Z,101570.09
2023-04-30T23:09:31.064Z,101574.50
2023-04-30T23:11:58.267Z,101574.53
2023-04-30T23:14:26.051Z,101573.66
2023-04-30T23:16:54.672Z,101570.09
2023-04-30T23:19:22.358Z,101567.47
2023-04-30T23:21:49.664Z,101569.22
2023-04-30T23:24:16.831Z,101571.00
2023-04-30T23:26:44.539Z,101568.38
2023-04-30T23:29:11.783Z,101573.63
2023-04-30T23:31:39.024Z,101565.72
2023-04-30T23:34:06.531Z,101566.59
2023-04-30T23:36:35.014Z,101563.97
2023-04-30T23:39:02.745Z,101562.22
2023-04-30T23:41:30.655Z,101567.50
2023-04-30T23:43:57.854Z,101560.44
2023-04-30T23:46:25.184Z,101556.09
2023-04-30T23:48:52.572Z,101561.34
2023-04-30T23:51:21.771Z,101564.88
2023-04-30T23:53:52.005Z,101559.59
2023-04-30T23:56:26.673Z,101557.84
